createdAt,value
2023-02-11T00:01:01.576Z,0.99
2023-02-11T00:03:46.591Z,1.00
2023-02-11T00:06:31.704Z,1.01
2023-02-11T00:09:16.616Z,0.85
2023-02-11T00:12:01.414Z,0.80
2023-02-11T00:14:46.410Z,0.79
2023-02-11T00:17:31.184Z,0.81
2023-02-11T00:20:16.058Z,0.76
2023-02-11T00:23:00.772Z,0.74
2023-02-11T00:25:45.552Z,0.70
2023-02-11T00:28:30.285Z,0.66
2023-02-11T00:31:15.232Z,0.62
2023-02-11T00:34:00.321Z,0.66
2023-02-11T00:36:45.031Z,0.72
2023-02-11T00:39:30.170Z,0.72
2023-02-11T00:42:15.284Z,0.74
2023-02-11T00:45:00.098Z,0.70
2023-02-11T00:47:44.846Z,0.79
2023-02-11T00:50:29.528Z,0.83
2023-02-11T00:53:14.321Z,0.81
2023-02-11T00:55:58.988Z,0.80
2023-02-11T00:58:43.753Z,0.79
2023-02-11T01:01:28.575Z,0.84
2023-02-11T01:04:13.428Z,0.96
2023-02-11T01:06:58.298Z,0.89
2023-02-11T01:09:43.137Z,0.84
2023-02-11T01:12:27.762Z,0.79
2023-02-11T01:15:12.611Z,0.74
2023-02-11T01:17:57.320Z,0.82
2023-02-11T01:20:42.073Z,0.86
2023-02-11T01:23:26.682Z,0.80
2023-02-11T01:26:11.436Z,0.81
2023-02-11T01:28:56.167Z,0.79
2023-02-11T01:31:41.076Z,0.86
2023-02-11T01:34:25.881Z,0.81
2023-02-11T01:37:10.588Z,0.67
2023-02-11T01:39:55.334Z,0.57
2023-02-11T01:42:40.002Z,0.43
2023-02-11T01:45:24.802Z,0.46
2023-02-11T01:48:09.569Z,0.48
2023-02-11T01:50:54.493Z,0.43
2023-02-11T01:53:39.292Z,0.45
2023-02-11T01:56:24.106Z,0.49
2023-02-11T01:59:08.744Z,0.49
2023-02-11T02:01:53.502Z,0.49
2023-02-11T02:04:38.134Z,0.48
2023-02-11T02:07:22.855Z,0.39
2023-02-11T02:10:07.729Z,0.45
2023-02-11T02:12:52.478Z,0.44
2023-02-11T02:15:37.152Z,0.57
2023-02-11T02:18:21.915Z,0.50
2023-02-11T02:21:06.827Z,0.50
2023-02-11T02:23:51.524Z,0.50
2023-02-11T02:26:36.301Z,0.49
2023-02-11T02:29:20.990Z,0.59
2023-02-11T02:32:05.897Z,0.58
2023-02-11T02:34:50.690Z,0.51
2023-02-11T02:37:35.439Z,0.52
2023-02-11T02:40:20.124Z,0.67
2023-02-11T02:43:04.882Z,0.75
2023-02-11T02:45:49.967Z,0.79
2023-02-11T02:48:34.812Z,0.83
2023-02-11T02:51:19.534Z,0.77
2023-02-11T02:54:04.150Z,0.66
2023-02-11T02:56:48.756Z,0.64
2023-02-11T02:59:33.420Z,0.62
2023-02-11T03:02:18.424Z,0.64
2023-02-11T03:05:03.186Z,0.70
2023-02-11T03:07:47.873Z,0.68
2023-02-11T03:10:32.710Z,0.72
2023-02-11T03:13:17.542Z,0.84
2023-02-11T03:16:02.380Z,0.86
2023-02-11T03:18:47.858Z,0.87
2023-02-11T03:21:32.925Z,0.85
2023-02-11T03:24:17.713Z,0.84
2023-02-11T03:27:02.391Z,0.74
2023-02-11T03:29:47.282Z,0.65
2023-02-11T03:32:32.094Z,0.67
2023-02-11T03:35:16.896Z,0.71
2023-02-11T03:38:01.618Z,0.67
2023-02-11T03:40:46.374Z,0.65
2023-02-11T03:43:31.044Z,0.60
2023-02-11T03:46:15.924Z,0.60
2023-02-11T03:49:00.619Z,0.61
2023-02-11T03:51:45.382Z,0.56
2023-02-11T03:54:30.107Z,0.54
2023-02-11T03:57:14.928Z,0.55
2023-02-11T03:59:59.774Z,0.63
2023-02-11T04:02:44.509Z,0.58
2023-02-11T04:05:29.411Z,0.61
2023-02-11T04:08:14.055Z,0.57
2023-02-11T04:10:58.805Z,0.63
2023-02-11T04:13:43.512Z,0.61
2023-02-11T04:16:28.240Z,0.60
2023-02-11T04:19:13.328Z,0.61
2023-02-11T04:21:58.360Z,0.73
2023-02-11T04:24:43.000Z,0.67
2023-02-11T04:27:27.756Z,0.49
2023-02-11T04:30:12.566Z,0.34
2023-02-11T04:32:57.166Z,0.26
2023-02-11T04:35:42.063Z,0.30
2023-02-11T04:38:26.702Z,0.47
2023-02-11T04:41:11.686Z,0.57
2023-02-11T04:43:56.358Z,0.62
2023-02-11T04:46:41.053Z,0.67
2023-02-11T04:49:25.772Z,0.68
2023-02-11T04:52:10.523Z,0.64
2023-02-11T04:54:55.228Z,0.65
2023-02-11T04:57:39.968Z,0.66
2023-02-11T05:00:24.681Z,0.73
2023-02-11T05:03:09.400Z,0.75
2023-02-11T05:05:54.235Z,0.77
2023-02-11T05:08:38.936Z,0.83
2023-02-11T05:11:23.671Z,0.83
2023-02-11T05:14:08.328Z,0.75
2023-02-11T05:16:53.037Z,0.74
2023-02-11T05:19:37.677Z,0.80
2023-02-11T05:22:22.400Z,0.79
2023-02-11T05:25:07.196Z,0.62
2023-02-11T05:27:51.997Z,0.48
2023-02-11T05:30:36.823Z,0.50
2023-02-11T05:33:21.566Z,0.56
2023-02-11T05:36:06.516Z,0.61
2023-02-11T05:38:51.172Z,0.60
2023-02-11T05:41:35.989Z,0.52
2023-02-11T05:44:20.714Z,0.54
2023-02-11T05:47:05.497Z,0.65
2023-02-11T05:49:50.111Z,0.65
2023-02-11T05:52:34.867Z,0.67
2023-02-11T05:55:20.069Z,0.72
2023-02-11T05:58:04.960Z,0.67
2023-02-11T06:00:49.817Z,0.63
2023-02-11T06:03:34.665Z,0.54
2023-02-11T06:06:19.402Z,0.64
2023-02-11T06:09:03.990Z,0.77
2023-02-11T06:11:48.843Z,0.84
2023-02-11T06:14:33.576Z,0.66
2023-02-11T06:17:18.331Z,0.56
2023-02-11T06:20:03.093Z,0.53
2023-02-11T06:22:47.945Z,0.45
2023-02-11T06:25:32.607Z,0.41
2023-02-11T06:28:17.345Z,0.45
2023-02-11T06:31:02.200Z,0.52
2023-02-11T06:33:47.397Z,0.55
2023-02-11T06:36:32.239Z,0.68
2023-02-11T06:39:16.900Z,0.77
2023-02-11T06:42:01.694Z,0.84
2023-02-11T06:44:46.506Z,0.90
2023-02-11T06:47:31.285Z,0.94
2023-02-11T06:50:15.941Z,0.87
2023-02-11T06:53:00.734Z,0.82
2023-02-11T06:55:45.581Z,0.88
2023-02-11T06:58:30.456Z,0.99
2023-02-11T07:01:15.166Z,1.15
2023-02-11T07:03:59.962Z,1.22
2023-02-11T07:06:44.638Z,1.27
2023-02-11T07:09:29.281Z,1.19
2023-02-11T07:12:14.128Z,1.20
2023-02-11T07:14:58.836Z,1.37
2023-02-11T07:17:43.615Z,1.46
2023-02-11T07:20:28.157Z,1.51
2023-02-11T07:23:13.001Z,1.55
2023-02-11T07:25:57.559Z,1.75
2023-02-11T07:28:42.470Z,1.91
2023-02-11T07:31:27.315Z,2.00
2023-02-11T07:34:12.488Z,1.92
2023-02-11T07:36:57.344Z,1.96
2023-02-11T07:39:42.096Z,2.06
2023-02-11T07:42:26.996Z,2.24
2023-02-11T07:45:11.742Z,3.33
2023-02-11T07:47:56.682Z,4.07
2023-02-11T07:50:41.344Z,3.83
2023-02-11T07:53:26.072Z,4.03
2023-02-11T07:56:10.873Z,4.53
2023-02-11T07:58:55.607Z,4.66
2023-02-11T08:01:40.419Z,4.55
2023-02-11T08:04:25.079Z,4.58
2023-02-11T08:07:09.902Z,4.41
2023-02-11T08:09:54.595Z,4.22
2023-02-11T08:12:39.457Z,4.14
2023-02-11T08:15:24.075Z,4.10
2023-02-11T08:18:08.742Z,3.89
2023-02-11T08:20:53.413Z,3.54
2023-02-11T08:23:38.174Z,3.58
2023-02-11T08:26:23.402Z,3.57
2023-02-11T08:29:08.121Z,3.62
2023-02-11T08:31:52.944Z,3.63
2023-02-11T08:34:37.522Z,3.75
2023-02-11T08:37:22.249Z,3.96
2023-02-11T08:40:06.949Z,4.15
2023-02-11T08:42:51.834Z,4.45
2023-02-11T08:45:36.509Z,4.73
2023-02-11T08:48:21.394Z,5.08
2023-02-11T08:51:06.024Z,5.47
2023-02-11T08:53:50.869Z,5.88
2023-02-11T08:56:35.664Z,6.17
2023-02-11T08:59:20.313Z,6.51
2023-02-11T09:02:05.167Z,6.68
2023-02-11T09:04:49.845Z,6.94
2023-02-11T09:07:34.578Z,7.19
2023-02-11T09:10:19.223Z,7.29
2023-02-11T09:13:05.194Z,7.42
2023-02-11T09:15:49.758Z,7.46
2023-02-11T09:18:34.517Z,7.62
2023-02-11T09:21:19.248Z,7.66
2023-02-11T09:24:04.090Z,7.85
2023-02-11T09:26:48.919Z,7.97
2023-02-11T09:29:33.598Z,7.75
2023-02-11T09:32:18.451Z,7.51
2023-02-11T09:35:03.558Z,6.90
2023-02-11T09:37:48.384Z,6.66
2023-02-11T09:40:33.071Z,6.32
2023-02-11T09:43:17.837Z,6.11
2023-02-11T09:46:02.743Z,5.79
2023-02-11T09:48:48.064Z,5.73
2023-02-11T09:51:33.037Z,5.84
2023-02-11T09:54:18.123Z,5.81
2023-02-11T09:57:02.986Z,5.82
2023-02-11T09:59:47.638Z,5.85
2023-02-11T10:02:32.418Z,6.10
2023-02-11T10:05:17.106Z,6.40
2023-02-11T10:08:02.049Z,6.68
2023-02-11T10:10:46.781Z,6.92
2023-02-11T10:13:31.634Z,7.12
2023-02-11T10:16:16.266Z,7.05
2023-02-11T10:19:01.129Z,7.12
2023-02-11T10:21:45.852Z,7.26
2023-02-11T10:24:30.625Z,7.48
2023-02-11T10:27:15.265Z,7.47
2023-02-11T10:30:00.028Z,7.38
2023-02-11T10:32:44.753Z,7.30
2023-02-11T10:35:29.693Z,7.06
2023-02-11T10:38:14.645Z,6.89
2023-02-11T10:40:59.233Z,6.86
2023-02-11T10:43:44.202Z,6.99
2023-02-11T10:46:28.945Z,6.90
2023-02-11T10:49:13.669Z,6.90
2023-02-11T10:51:58.445Z,6.91
2023-02-11T10:54:43.366Z,6.98
2023-02-11T10:57:28.135Z,6.89
2023-02-11T11:00:12.774Z,6.81
2023-02-11T11:02:57.691Z,6.71
2023-02-11T11:05:42.346Z,6.74
2023-02-11T11:08:27.194Z,6.69
2023-02-11T11:11:11.864Z,6.77
2023-02-11T11:13:56.654Z,6.73
2023-02-11T11:16:41.250Z,6.74
2023-02-11T11:19:26.123Z,6.75
2023-02-11T11:22:10.966Z,6.88
2023-02-11T11:24:55.715Z,7.03
2023-02-11T11:27:40.408Z,7.09
2023-02-11T11:30:25.018Z,7.26
2023-02-11T11:33:09.925Z,7.40
2023-02-11T11:35:54.616Z,7.42
2023-02-11T11:38:39.284Z,7.49
2023-02-11T11:41:23.981Z,7.72
2023-02-11T11:44:08.804Z,7.88
2023-02-11T11:46:53.408Z,7.78
2023-02-11T11:49:38.123Z,7.58
2023-02-11T11:52:22.834Z,7.44
2023-02-11T11:55:07.597Z,7.23
2023-02-11T11:57:52.332Z,7.05
2023-02-11T12:00:37.043Z,7.01
2023-02-11T12:03:21.948Z,6.84
2023-02-11T12:06:07.187Z,6.83
2023-02-11T12:08:52.023Z,6.89
2023-02-11T12:11:36.685Z,6.95
2023-02-11T12:14:21.632Z,7.10
2023-02-11T12:17:06.364Z,7.28
2023-02-11T12:19:51.241Z,7.23
2023-02-11T12:22:36.080Z,7.33
2023-02-11T12:25:20.972Z,7.47
2023-02-11T12:28:05.985Z,7.74
2023-02-11T12:30:50.960Z,7.93
2023-02-11T12:33:36.021Z,7.89
2023-02-11T12:36:20.759Z,7.91
2023-02-11T12:39:05.586Z,8.01
2023-02-11T12:41:50.184Z,8.10
2023-02-11T12:44:34.971Z,8.00
2023-02-11T12:47:19.724Z,8.05
2023-02-11T12:50:04.440Z,8.10
2023-02-11T12:52:49.258Z,8.22
2023-02-11T12:55:34.086Z,8.27
2023-02-11T12:58:18.903Z,8.26
2023-02-11T13:01:03.583Z,8.22
2023-02-11T13:03:48.514Z,8.13
2023-02-11T13:06:33.060Z,8.15
2023-02-11T13:09:17.791Z,8.22
2023-02-11T13:12:02.625Z,8.38
2023-02-11T13:14:47.475Z,8.47
2023-02-11T13:17:32.228Z,8.53
2023-02-11T13:20:16.956Z,8.64
2023-02-11T13:23:01.780Z,8.71
2023-02-11T13:25:46.640Z,8.85
2023-02-11T13:28:31.619Z,8.93
2023-02-11T13:31:16.900Z,8.95
2023-02-11T13:34:02.079Z,8.87
2023-02-11T13:36:46.822Z,8.82
2023-02-11T13:39:31.461Z,8.81
2023-02-11T13:42:16.180Z,8.77
2023-02-11T13:45:00.969Z,8.78
2023-02-11T13:47:45.803Z,8.90
2023-02-11T13:50:30.502Z,8.93
2023-02-11T13:53:16.071Z,8.99
2023-02-11T13:56:00.829Z,9.03
2023-02-11T13:58:45.723Z,9.07
2023-02-11T14:01:30.523Z,9.06
2023-02-11T14:04:15.221Z,9.10
2023-02-11T14:07:00.098Z,9.08
2023-02-11T14:09:44.960Z,9.16
2023-02-11T14:12:29.751Z,9.19
2023-02-11T14:15:14.505Z,9.22
2023-02-11T14:17:59.281Z,9.27
2023-02-11T14:20:44.148Z,9.31
2023-02-11T14:23:28.832Z,9.33
2023-02-11T14:26:13.655Z,9.37
2023-02-11T14:28:58.628Z,9.37
2023-02-11T14:31:43.321Z,9.36
2023-02-11T14:34:28.535Z,9.12
2023-02-11T14:37:13.069Z,8.99
2023-02-11T14:39:57.965Z,8.77
2023-02-11T14:42:42.693Z,8.63
2023-02-11T14:45:27.997Z,8.51
2023-02-11T14:48:12.810Z,8.42
2023-02-11T14:50:57.611Z,8.22
2023-02-11T14:53:42.445Z,8.24
2023-02-11T14:56:27.149Z,8.16
2023-02-11T14:59:12.012Z,8.09
2023-02-11T15:01:56.919Z,8.03
2023-02-11T15:04:42.091Z,7.98
2023-02-11T15:07:26.854Z,7.87
2023-02-11T15:10:11.755Z,7.89
2023-02-11T15:12:56.516Z,7.79
2023-02-11T15:15:41.289Z,7.72
2023-02-11T15:18:25.922Z,7.68
2023-02-11T15:21:10.792Z,7.73
2023-02-11T15:23:55.644Z,7.71
2023-02-11T15:26:40.317Z,7.69
2023-02-11T15:29:25.167Z,7.69
2023-02-11T15:32:10.002Z,7.67
2023-02-11T15:34:55.238Z,7.72
2023-02-11T15:37:39.978Z,7.69
2023-02-11T15:40:24.707Z,7.68
2023-02-11T15:43:09.681Z,7.66
2023-02-11T15:45:54.369Z,7.49
2023-02-11T15:48:39.118Z,7.43
2023-02-11T15:51:23.803Z,7.24
2023-02-11T15:54:08.631Z,7.19
2023-02-11T15:56:53.223Z,7.03
2023-02-11T15:59:37.992Z,6.90
2023-02-11T16:02:22.816Z,6.81
2023-02-11T16:05:07.545Z,6.77
2023-02-11T16:07:52.533Z,6.71
2023-02-11T16:10:37.221Z,6.54
2023-02-11T16:13:21.973Z,6.64
2023-02-11T16:16:06.697Z,6.63
2023-02-11T16:19:03.431Z,6.54
2023-02-11T16:21:49.402Z,6.32
2023-02-11T16:24:34.150Z,6.07
2023-02-11T16:27:18.819Z,6.00
2023-02-11T16:30:03.601Z,5.93
2023-02-11T16:32:48.210Z,5.75
2023-02-11T16:35:32.931Z,5.58
2023-02-11T16:38:17.559Z,5.43
2023-02-11T16:41:02.272Z,5.34
2023-02-11T16:43:47.088Z,5.29
2023-02-11T16:46:32.342Z,5.45
2023-02-11T16:49:17.156Z,5.51
2023-02-11T16:52:01.945Z,5.47
2023-02-11T16:54:46.780Z,5.51
2023-02-11T16:57:31.589Z,5.52
2023-02-11T17:00:16.486Z,5.35
2023-02-11T17:03:01.049Z,5.19
2023-02-11T17:05:55.034Z,5.02
2023-02-11T17:08:40.683Z,4.85
2023-02-11T17:11:25.534Z,4.74
2023-02-11T17:14:10.427Z,4.78
2023-02-11T17:16:55.256Z,4.84
2023-02-11T17:19:39.845Z,4.94
2023-02-11T17:22:24.660Z,5.00
2023-02-11T17:25:09.499Z,5.00
2023-02-11T17:27:54.470Z,5.02
2023-02-11T17:30:39.191Z,4.96
2023-02-11T17:33:23.953Z,4.90
2023-02-11T17:36:08.645Z,4.71
2023-02-11T17:38:53.415Z,4.72
2023-02-11T17:41:38.334Z,4.84
2023-02-11T17:44:23.053Z,5.01
2023-02-11T17:47:07.921Z,5.03
2023-02-11T17:49:52.695Z,4.95
2023-02-11T17:52:37.392Z,4.89
2023-02-11T17:55:22.325Z,4.74
2023-02-11T17:58:07.172Z,4.79
2023-02-11T18:00:51.881Z,4.88
2023-02-11T18:03:36.570Z,4.83
2023-02-11T18:06:21.398Z,4.70
2023-02-11T18:09:06.260Z,4.62
2023-02-11T18:11:50.973Z,4.62
2023-02-11T18:14:35.668Z,4.74
2023-02-11T18:17:20.513Z,4.74
2023-02-11T18:20:05.231Z,4.69
2023-02-11T18:22:50.149Z,4.77
2023-02-11T18:25:34.737Z,4.81
2023-02-11T18:28:19.527Z,4.74
2023-02-11T18:31:04.413Z,4.81
2023-02-11T18:33:49.192Z,4.83
2023-02-11T18:36:34.114Z,4.73
2023-02-11T18:39:18.784Z,4.67
2023-02-11T18:42:03.686Z,4.64
2023-02-11T18:44:48.411Z,4.64
2023-02-11T18:47:33.283Z,4.64
2023-02-11T18:50:18.044Z,4.60
2023-02-11T18:53:02.814Z,4.57
2023-02-11T18:55:47.654Z,4.59
2023-02-11T18:58:32.611Z,4.55
2023-02-11T19:01:17.779Z,4.54
2023-02-11T19:04:02.844Z,4.49
2023-02-11T19:06:48.011Z,4.50
2023-02-11T19:09:32.951Z,4.46
2023-02-11T19:12:17.729Z,4.39
2023-02-11T19:15:02.442Z,4.41
2023-02-11T19:17:47.407Z,4.40
2023-02-11T19:20:32.006Z,4.42
2023-02-11T19:23:16.687Z,4.46
2023-02-11T19:26:01.263Z,4.42
2023-02-11T19:28:46.019Z,4.31
2023-02-11T19:31:30.959Z,4.40
2023-02-11T19:34:16.096Z,4.39
2023-02-11T19:37:00.942Z,4.40
2023-02-11T19:39:45.568Z,4.38
2023-02-11T19:42:30.368Z,4.43
2023-02-11T19:45:15.149Z,4.49
2023-02-11T19:47:59.953Z,4.47
2023-02-11T19:50:45.115Z,4.44
2023-02-11T19:53:29.977Z,4.38
2023-02-11T19:56:14.714Z,4.47
2023-02-11T19:58:59.673Z,4.51
2023-02-11T20:01:44.634Z,4.49
2023-02-11T20:04:29.337Z,4.42
2023-02-11T20:07:14.072Z,4.36
2023-02-11T20:09:58.749Z,4.28
2023-02-11T20:12:43.707Z,4.21
2023-02-11T20:15:28.655Z,4.24
2023-02-11T20:18:13.271Z,4.34
2023-02-11T20:20:57.922Z,4.35
2023-02-11T20:23:42.600Z,4.38
2023-02-11T20:26:27.362Z,4.32
2023-02-11T20:29:12.053Z,4.27
2023-02-11T20:31:57.107Z,4.24
2023-02-11T20:34:42.218Z,4.24
2023-02-11T20:37:26.930Z,4.30
2023-02-11T20:40:11.576Z,4.39
2023-02-11T20:42:56.493Z,4.48
2023-02-11T20:45:41.131Z,4.51
2023-02-11T20:48:25.729Z,4.52
2023-02-11T20:51:10.496Z,4.47
2023-02-11T20:53:55.309Z,4.29
2023-02-11T20:56:40.178Z,4.12
2023-02-11T20:59:24.951Z,3.96
2023-02-11T21:02:10.232Z,3.91
2023-02-11T21:04:55.419Z,3.83
2023-02-11T21:07:40.448Z,3.94
2023-02-11T21:10:25.352Z,3.95
2023-02-11T21:13:10.055Z,3.96
2023-02-11T21:15:55.154Z,3.92
2023-02-11T21:18:40.562Z,3.84
2023-02-11T21:21:25.291Z,3.86
2023-02-11T21:24:10.055Z,3.90
2023-02-11T21:26:55.165Z,3.90
2023-02-11T21:29:52.799Z,3.91
2023-02-11T21:32:39.047Z,3.93
2023-02-11T21:35:23.729Z,3.97
2023-02-11T21:38:08.471Z,4.00
2023-02-11T21:40:53.388Z,3.85
2023-02-11T21:43:38.626Z,3.61
2023-02-11T21:46:23.572Z,3.57
2023-02-11T21:49:08.648Z,3.58
2023-02-11T21:51:53.370Z,3.60
2023-02-11T21:54:38.043Z,3.61
2023-02-11T21:57:22.909Z,3.66
2023-02-11T22:00:07.793Z,3.67
2023-02-11T22:02:52.531Z,3.74
2023-02-11T22:05:37.198Z,3.82
2023-02-11T22:08:22.167Z,3.81
2023-02-11T22:11:07.370Z,3.69
2023-02-11T22:13:52.129Z,3.73
2023-02-11T22:16:37.070Z,3.78
2023-02-11T22:19:21.846Z,3.82
2023-02-11T22:22:06.513Z,3.78
2023-02-11T22:24:51.201Z,3.76
2023-02-11T22:27:36.085Z,3.91
2023-02-11T22:30:20.880Z,3.94
2023-02-11T22:33:05.763Z,3.92
2023-02-11T22:35:50.454Z,3.96
2023-02-11T22:38:35.291Z,3.90
2023-02-11T22:41:19.996Z,3.91
2023-02-11T22:44:04.855Z,3.95
2023-02-11T22:46:49.610Z,4.02
2023-02-11T22:49:34.305Z,3.96
2023-02-11T22:52:21.462Z,4.02
2023-02-11T22:55:06.263Z,3.97
2023-02-11T22:57:51.200Z,3.84
2023-02-11T23:00:35.927Z,3.85
2023-02-11T23:03:20.746Z,3.84
2023-02-11T23:06:05.411Z,3.86
2023-02-11T23:08:50.215Z,3.90
2023-02-11T23:11:34.973Z,3.92
2023-02-11T23:14:19.666Z,3.90
2023-02-11T23:17:04.402Z,3.93
2023-02-11T23:19:49.276Z,3.89
2023-02-11T23:22:34.028Z,3.85
2023-02-11T23:25:18.793Z,3.81
2023-02-11T23:28:03.724Z,3.79
2023-02-11T23:30:48.446Z,3.86
2023-02-11T23:33:33.334Z,3.92
2023-02-11T23:36:18.063Z,3.94
2023-02-11T23:39:02.871Z,3.91
2023-02-11T23:41:47.655Z,3.86
2023-02-11T23:44:32.370Z,3.87
2023-02-11T23:47:17.113Z,3.91
2023-02-11T23:50:01.839Z,3.95
2023-02-11T23:52:46.702Z,3.87
2023-02-11T23:55:31.465Z,3.83
2023-02-11T23:58:16.225Z,3.78
